Latest Weather Observations for Cressy

IDT60801

Issued at 6:05 pm EST Thursday 24 April 2014 (issued every 30 minutes, with the page automatically refreshed every 10 minutes)

About weather observations | Map of weather stations | Latest weather observations for TAS | Other Formats
Station Details ID: 091306 Name: CRESSY RESEARCH STATION Lat: -41.73 Lon: 147.08 Height: 148.0 m
Data from the previous 72 hours. | See also: Recent months at Cressy
Date/Time
EST
Temp
°C
App
Temp
°C
Dew
Point
Rel
Hum
%
Delta-T
°C
Wind Press
QNH
hPa
Press
MSL
hPa
Rain
since 9 am
mm
Dir
 
Spd
km/h
Gust
km/h
Spd
kts
Gust
kts
24/06:00pm 7.7 3.6 -0.5 56 3.2 NW 11 15 6 8 - - 0.0
24/05:45pm 10.1 2.7 -0.7 47 4.3 WSW 28 46 15 25 - - 0.0
24/05:41pm 10.2 1.1 -0.6 47 4.3 W 37 46 20 25 - - 0.0
24/05:30pm 8.6 4.6 0.6 57 3.2 WSW 11 17 6 9 - - 0.0
24/05:00pm 9.9 5.5 0.3 51 3.9 SSW 13 19 7 10 - - 0.0
24/04:30pm 10.2 5.0 0.0 49 4.1 SW 17 30 9 16 - - 0.0
24/04:00pm 10.8 4.7 0.5 49 4.3 WSW 22 32 12 17 - - 0.0
24/03:30pm 11.1 4.2 -0.1 46 4.6 WSW 26 41 14 22 - - 0.0
24/03:00pm 11.4 3.7 0.2 46 4.6 WSW 30 50 16 27 - - 0.0
24/02:30pm 12.5 4.5 1.8 48 4.6 W 33 52 18 28 - - 0.0
24/02:28pm 12.4 4.4 1.7 48 4.6 W 33 52 18 28 - - 0.0
24/02:00pm 12.8 6.5 1.5 46 4.9 W 24 39 13 21 - - 0.0
24/01:30pm 12.3 6.5 2.5 51 4.3 WSW 22 33 12 18 - - 0.0
24/01:00pm 11.6 4.0 2.9 55 3.8 WSW 32 52 17 28 - - 0.0
24/12:38pm 11.3 3.9 1.8 52 4.1 WSW 30 52 16 28 - - 0.0
24/12:30pm 11.8 5.8 1.2 48 4.5 SSW 22 41 12 22 - - 0.0
24/12:00pm 12.0 5.5 2.5 52 4.2 W 26 43 14 23 - - 0.0
24/11:30am 12.2 5.5 3.4 55 3.9 W 28 39 15 21 - - 0.0
24/11:00am 12.2 4.9 2.4 51 4.3 WSW 30 46 16 25 - - 0.0
24/10:53am 12.5 5.7 2.9 52 4.3 W 28 46 15 25 - - 0.0
24/10:30am 12.3 6.0 3.8 56 3.8 W 26 35 14 19 - - 0.0
24/10:00am 11.3 4.2 3.6 59 3.4 W 30 39 16 21 - - 0.0
24/09:30am 12.5 9.0 5.4 62 3.3 WNW 13 28 7 15 - - 0.0
24/09:00am 11.0 8.3 8.9 87 1.0 NW 13 19 7 10 - - 10.4
24/08:30am 10.1 7.5 9.5 96 0.3 WNW 13 28 7 15 - - 10.4
24/08:00am 8.9 4.8 8.5 97 0.2 NNW 20 30 11 16 - - 10.4
24/07:30am 8.5 4.5 8.1 97 0.2 N 19 24 10 13 - - 10.4
24/07:00am 8.7 5.1 8.4 98 0.1 N 17 24 9 13 - - 10.4
24/06:30am 8.9 5.7 8.5 97 0.2 N 15 20 8 11 - - 10.4
24/06:00am 9.4 4.6 7.2 86 1.0 WNW 22 30 12 16 - - 10.2
24/05:30am 10.3 3.6 7.4 82 1.4 WSW 32 44 17 24 - - 9.4
24/05:11am 12.3 7.2 12.0 98 0.2 NW 30 43 16 23 - - 7.8
24/05:00am 12.0 9.7 11.7 98 0.2 WNW 15 24 8 13 - - 6.2
24/04:30am 12.1 6.6 11.8 98 0.2 NNW 32 43 17 23 - - 4.4
24/04:00am 12.1 7.3 11.8 98 0.2 N 28 37 15 20 - - 2.8
24/03:30am 11.7 8.5 11.4 98 0.2 N 19 24 10 13 - - 2.4
24/03:00am 11.0 7.6 10.7 98 0.2 WNW 19 28 10 15 - - 2.4
24/02:30am 10.8 8.1 10.5 98 0.2 N 15 26 8 14 - - 0.6
24/02:00am 10.5 7.4 10.2 98 0.2 N 17 24 9 13 - - 0.4
24/01:30am 10.5 7.4 10.2 98 0.2 NW 17 22 9 12 - - 0.4
24/01:00am 10.3 7.1 10.0 98 0.2 NNW 17 20 9 11 - - 0.4
24/12:30am 10.4 6.9 10.1 98 0.2 N 19 24 10 13 - - 0.4
24/12:00am 10.7 7.6 10.4 98 0.2 NNW 17 20 9 11 - - 0.2
 
Date/Time
EST
Temp
°C
App
Temp
°C
Dew
Point
Rel
Hum
%
Delta-T
°C
Wind Press
QNH
hPa
Press
MSL
hPa
Rain
since 9 am
mm
Dir
 
Spd
km/h
Gust
km/h
Spd
kts
Gust
kts
23/11:30pm 10.3 7.1 10.0 98 0.2 NNW 17 20 9 11 - - 0.0
23/11:00pm 10.3 6.2 10.0 98 0.2 NNW 22 28 12 15 - - 0.0
23/10:30pm 10.6 5.7 10.1 97 0.3 NNW 26 33 14 18 - - 0.0
23/10:00pm 10.6 6.9 10.1 97 0.3 NNW 20 28 11 15 - - 0.0
23/09:30pm 11.3 10.2 10.5 95 0.4 NNE 7 13 4 7 - - 0.0
23/09:00pm 11.0 7.4 10.7 98 0.2 N 20 26 11 14 - - 0.0
23/08:30pm 10.7 7.3 10.4 98 0.2 N 19 24 10 13 - - 0.0
23/08:00pm 10.3 6.6 10.0 98 0.2 N 20 26 11 14 - - 0.0
23/07:30pm 10.2 6.4 9.9 98 0.2 NNW 20 24 11 13 - - 0.0
23/07:00pm 11.0 7.0 10.5 97 0.3 N 22 30 12 16 - - 0.0
23/06:30pm 11.5 8.2 11.0 97 0.3 N 19 24 10 13 - - 0.0
23/06:00pm 11.5 7.7 11.0 97 0.3 NNW 22 28 12 15 - - 0.0
23/05:30pm 12.3 7.1 10.2 87 1.1 NNW 28 35 15 19 - - 0.0
23/05:00pm 12.8 6.7 9.8 82 1.5 NNW 32 39 17 21 - - 0.0
23/04:30pm 13.3 7.6 9.7 79 1.9 NNW 30 41 16 22 - - 0.0
23/04:00pm 13.4 9.2 9.8 79 1.9 NNW 22 28 12 15 - - 0.0
23/03:30pm 13.5 8.5 9.4 76 2.1 NW 26 32 14 17 - - 0.0
23/03:00pm 14.2 9.3 8.6 69 2.8 NW 24 35 13 19 - - 0.0
23/02:30pm 14.4 9.5 8.4 67 3.0 NW 24 32 13 17 - - 0.0
23/02:00pm 14.9 9.9 8.2 64 3.4 NNW 24 35 13 19 - - 0.0
23/01:30pm 14.9 8.3 7.7 62 3.6 NNW 32 46 17 25 - - 0.0
23/01:00pm 14.9 9.9 7.9 63 3.5 NW 24 33 13 18 - - 0.0
23/12:30pm 14.9 9.3 7.2 60 3.8 NW 26 39 14 21 - - 0.0
23/12:00pm 15.0 10.1 8.3 64 3.4 NW 24 35 13 19 - - 0.0
23/11:30am 14.3 8.6 8.3 67 3.0 NNW 28 33 15 18 - - 0.0
23/11:00am 13.7 9.9 9.2 74 2.3 NW 19 24 10 13 - - 0.0
23/10:30am 12.4 10.0 10.0 85 1.2 N 13 17 7 9 - - 0.0
23/10:00am 10.7 9.5 10.2 97 0.3 N 7 11 4 6 - - 0.0
23/09:30am 8.3 6.5 8.0 98 0.1 N 7 11 4 6 - - 0.0
23/09:00am 6.6 4.7 6.5 99 0.0 S 6 7 3 4 - - 0.0
23/08:30am 5.6 3.3 5.5 99 0.0 S 7 7 4 4 - - 0.0
23/08:00am 3.5 0.9 3.4 99 0.0 W 6 7 3 4 - - 0.0
23/07:30am 1.1 -1.1 0.8 98 0.1 S 2 9 1 5 - - 0.0
23/07:00am 0.9 -1.0 0.6 98 0.1 CALM 0 0 0 0 - - 0.0
23/06:30am 0.2 -1.8 -0.1 98 0.1 CALM 0 0 0 0 - - 0.0
23/06:00am 1.4 -0.4 1.1 98 0.1 CALM 0 0 0 0 - - 0.0
23/05:30am 2.3 -0.1 2.0 98 0.1 NNE 4 7 2 4 - - 0.0
23/05:00am 1.6 -0.9 1.3 98 0.1 SE 4 7 2 4 - - 0.0
23/04:30am 2.4 0.7 2.1 98 0.1 CALM 0 0 0 0 - - 0.0
23/04:00am 2.4 0.7 2.1 98 0.1 CALM 0 0 0 0 - - 0.0
23/03:30am 2.5 0.9 2.2 98 0.1 CALM 0 0 0 0 - - 0.0
23/03:00am 3.3 1.8 3.0 98 0.1 CALM 0 0 0 0 - - 0.0
23/02:30am 3.3 1.4 3.0 98 0.1 E 2 7 1 4 - - 0.0
23/02:00am 3.5 0.9 3.2 98 0.1 SSE 6 7 3 4 - - 0.0
23/01:30am 3.6 1.4 3.3 98 0.1 SSW 4 7 2 4 - - 0.0
23/01:00am 2.8 0.1 2.4 97 0.2 NE 6 9 3 5 - - 0.0
23/12:30am 4.3 0.9 3.9 97 0.2 ESE 11 15 6 8 - - 0.0
23/12:00am 5.3 3.8 4.9 97 0.2 S 2 7 1 4 - - 0.0
 
Date/Time
EST
Temp
°C
App
Temp
°C
Dew
Point
Rel
Hum
%
Delta-T
°C
Wind Press
QNH
hPa
Press
MSL
hPa
Rain
since 9 am
mm
Dir
 
Spd
km/h
Gust
km/h
Spd
kts
Gust
kts
22/11:30pm 7.2 5.1 6.0 92 0.5 NNW 6 13 3 7 - - 0.0
22/11:00pm 6.3 3.8 4.8 90 0.7 NNE 7 11 4 6 - - 0.0
22/10:30pm 6.5 2.9 5.0 90 0.7 NNW 13 19 7 10 - - 0.0
22/10:00pm 7.4 3.8 5.0 85 1.1 N 13 17 7 9 - - 0.0
22/09:30pm 8.2 4.6 5.1 81 1.4 WNW 13 19 7 10 - - 0.0
22/09:00pm 7.7 5.2 3.9 77 1.7 NNW 6 7 3 4 - - 0.0
22/08:30pm 8.2 4.7 3.5 72 2.0 NNW 11 13 6 7 - - 0.0
22/08:00pm 9.6 6.0 3.1 64 2.8 NNW 11 15 6 8 - - 0.0
22/07:30pm 10.8 6.8 3.1 59 3.4 NW 13 19 7 10 - - 0.0
22/07:00pm 11.3 7.0 3.1 57 3.6 NW 15 20 8 11 - - 0.0
22/06:30pm 11.1 9.1 2.4 55 3.8 SW 2 7 1 4 - - 0.0
22/06:00pm 11.0 8.0 2.1 54 3.8 SSW 7 13 4 7 - - 0.0
22/05:30pm 12.9 8.2 3.3 52 4.3 W 17 22 9 12 - - 0.0
22/05:00pm 14.9 9.8 3.1 45 5.4 W 19 28 10 15 - - 0.0
22/04:30pm 16.5 11.7 4.5 45 5.7 W 19 28 10 15 - - 0.0
22/04:00pm 17.1 10.9 4.4 43 6.0 W 26 35 14 19 - - 0.0
22/03:30pm 18.1 12.0 4.7 41 6.5 WSW 26 33 14 18 - - 0.0
22/03:00pm 19.1 13.5 5.2 40 6.8 W 24 32 13 17 - - 0.0
22/02:30pm 19.5 14.9 9.7 53 5.3 NW 24 33 13 18 - - 0.0
22/02:00pm 19.3 13.2 10.3 56 4.9 NW 33 43 18 23 - - 0.0
22/01:30pm 19.7 14.3 10.9 57 4.8 NNW 30 39 16 21 - - 0.0
22/01:00pm 18.8 12.8 10.1 57 4.7 NNW 32 43 17 23 - - 0.0
22/12:30pm 18.3 11.8 10.2 59 4.4 NNW 35 43 19 23 - - 0.0
22/12:00pm 18.1 12.0 10.5 61 4.1 NNW 33 44 18 24 - - 0.0
22/11:30am 18.0 12.6 12.2 69 3.2 NNW 32 44 17 24 - - 0.0
22/11:00am 17.6 12.1 13.5 77 2.3 NNW 35 46 19 25 - - 0.0
22/10:30am 16.7 11.8 14.2 85 1.4 NNW 33 43 18 23 - - 0.0
22/10:00am 15.7 13.1 14.9 95 0.5 NNW 22 30 12 16 - - 0.0
22/09:30am 15.1 12.8 14.6 97 0.3 NNW 20 28 11 15 - - 0.0
22/09:00am 15.0 12.9 14.7 98 0.2 NNW 19 24 10 13 - - 20.4
22/08:30am 15.0 12.9 14.7 98 0.2 N 19 26 10 14 - - 20.4
22/08:00am 14.6 13.1 14.3 98 0.2 NNW 15 19 8 10 - - 20.4
22/07:30am 14.6 12.4 14.3 98 0.2 NNW 19 24 10 13 - - 20.4
22/07:00am 14.6 12.7 14.3 98 0.2 NNW 17 24 9 13 - - 20.4
22/06:30am 14.5 11.7 14.2 98 0.2 NNW 22 28 12 15 - - 20.4
22/06:00am 14.6 11.8 14.3 98 0.2 N 22 33 12 18 - - 20.4
22/05:30am 15.0 10.7 14.5 97 0.3 NNW 30 41 16 22 - - 20.4
22/05:00am 15.3 11.9 14.8 97 0.3 NNW 26 35 14 19 - - 20.4
22/04:30am 15.0 11.5 14.5 97 0.3 NNW 26 33 14 18 - - 20.4
22/04:00am 15.0 11.9 14.5 97 0.3 NNW 24 35 13 19 - - 20.4
22/03:30am 14.9 11.0 14.4 97 0.3 NNW 28 37 15 20 - - 20.4
22/03:00am 14.7 10.3 14.2 97 0.3 NNW 30 43 16 23 - - 20.4
22/02:30am 14.5 10.9 14.2 98 0.2 N 26 39 14 21 - - 20.4
22/02:00am 14.1 11.2 13.9 99 0.1 NNW 22 33 12 18 - - 20.4
22/01:30am 13.9 11.3 13.9 100 0.0 N 20 32 11 17 - - 20.4
22/01:00am 13.5 11.0 13.5 100 0.0 N 19 26 10 14 - - 20.4
22/12:30am 11.0 9.6 11.0 100 0.0 NW 9 19 5 10 - - 20.4
22/12:00am 9.1 7.8 9.1 100 0.0 SSW 6 11 3 6 - - 20.4
 
Date/Time
EST
Temp
°C
App
Temp
°C
Dew
Point
Rel
Hum
%
Delta-T
°C
Wind Press
QNH
hPa
Press
MSL
hPa
Rain
since 9 am
mm
Dir
 
Spd
km/h
Gust
km/h
Spd
kts
Gust
kts
21/11:30pm 8.7 7.6 8.6 99 0.0 E 4 13 2 7 - - 19.8
21/11:00pm 8.2 7.4 8.1 99 0.0 NNW 2 7 1 4 - - 19.0
21/10:30pm 8.2 7.8 8.1 99 0.0 CALM 0 6 0 3 - - 17.8
21/10:00pm 8.0 6.4 7.9 99 0.0 WSW 6 13 3 7 - - 17.0
21/09:30pm 7.9 6.6 7.8 99 0.0 W 4 9 2 5 - - 16.4
21/09:00pm 7.8 7.3 7.7 99 0.0 CALM 0 4 0 2 - - 15.6
21/08:30pm 7.8 6.1 7.7 99 0.0 WNW 6 9 3 5 - - 14.8
21/08:00pm 7.6 4.9 7.5 99 0.0 N 11 15 6 8 - - 14.8
21/07:30pm 7.6 7.0 7.5 99 0.0 CALM 0 2 0 1 - - 13.2
21/07:00pm 7.5 6.5 7.4 99 0.0 SSW 2 7 1 4 - - 10.6
21/06:30pm 7.5 6.9 7.4 99 0.0 CALM 0 0 0 0 - - 8.6

Other Formats:

Comma delimited format used in spreadsheet applications
http://www.bom.gov.au/fwo/IDT60801/IDT60801.95969.axf

JavaScript Object Notation format (JSON) in row-major order
http://www.bom.gov.au/fwo/IDT60801/IDT60801.95969.json